sensor_id;sensor_type;location;lat;lon;timestamp;temperature;humidity
9193;DHT22;4631;49.296;10.560;2022-11-13T00:01:45;2.90;99.90
9193;DHT22;4631;49.296;10.560;2022-11-13T00:04:11;3.00;99.90
9193;DHT22;4631;49.296;10.560;2022-11-13T00:06:38;2.90;99.90
9193;DHT22;4631;49.296;10.560;2022-11-13T00:09:04;2.90;99.90
9193;DHT22;4631;49.296;10.560;2022-11-13T00:11:31;2.90;99.90
9193;DHT22;4631;49.296;10.560;2022-11-13T00:13:58;2.90;99.90
9193;DHT22;4631;49.296;10.560;2022-11-13T00:16:24;2.90;99.90
9193;DHT22;4631;49.296;10.560;2022-11-13T00:18:52;2.90;99.90
9193;DHT22;4631;49.296;10.560;2022-11-13T00:21:21;2.90;99.90
9193;DHT22;4631;49.296;10.560;2022-11-13T00:23:48;2.90;99.90
9193;DHT22;4631;49.296;10.560;2022-11-13T00:26:16;2.90;99.90
9193;DHT22;4631;49.296;10.560;2022-11-13T00:28:43;2.90;99.90
9193;DHT22;4631;49.296;10.560;2022-11-13T00:31:09;2.80;99.90
9193;DHT22;4631;49.296;10.560;2022-11-13T00:33:37;2.80;99.90
9193;DHT22;4631;49.296;10.560;2022-11-13T00:36:05;2.80;99.90
9193;DHT22;4631;49.296;10.560;2022-11-13T00:38:33;2.80;99.90
9193;DHT22;4631;49.296;10.560;2022-11-13T00:40:59;2.70;99.90
9193;DHT22;4631;49.296;10.560;2022-11-13T00:43:26;2.70;99.90
9193;DHT22;4631;49.296;10.560;2022-11-13T00:45:53;2.70;99.90
9193;DHT22;4631;49.296;10.560;2022-11-13T00:48:20;2.70;99.90
9193;DHT22;4631;49.296;10.560;2022-11-13T00:50:46;2.70;99.90
9193;DHT22;4631;49.296;10.560;2022-11-13T00:53:14;2.70;99.90
9193;DHT22;4631;49.296;10.560;2022-11-13T00:55:41;2.70;99.90
9193;DHT22;4631;49.296;10.560;2022-11-13T00:58:08;2.60;99.90
9193;DHT22;4631;49.296;10.560;2022-11-13T01:00:35;2.60;99.90
9193;DHT22;4631;49.296;10.560;2022-11-13T01:03:01;2.60;99.90
9193;DHT22;4631;49.296;10.560;2022-11-13T01:05:28;2.60;99.90
9193;DHT22;4631;49.296;10.560;2022-11-13T01:07:55;2.50;99.90
9193;DHT22;4631;49.296;10.560;2022-11-13T01:10:23;2.50;99.90
9193;DHT22;4631;49.296;10.560;2022-11-13T01:12:50;2.50;99.90
9193;DHT22;4631;49.296;10.560;2022-11-13T01:15:17;2.50;99.90
9193;DHT22;4631;49.296;10.560;2022-11-13T01:17:43;2.50;99.90
9193;DHT22;4631;49.296;10.560;2022-11-13T01:20:10;2.40;99.90
9193;DHT22;4631;49.296;10.560;2022-11-13T01:22:36;2.40;99.90
9193;DHT22;4631;49.296;10.560;2022-11-13T01:25:03;2.40;99.90
9193;DHT22;4631;49.296;10.560;2022-11-13T01:27:34;2.40;99.90
9193;DHT22;4631;49.296;10.560;2022-11-13T01:30:00;2.40;99.90
9193;DHT22;4631;49.296;10.560;2022-11-13T01:32:27;2.40;99.90
9193;DHT22;4631;49.296;10.560;2022-11-13T01:34:53;2.40;99.90
9193;DHT22;4631;49.296;10.560;2022-11-13T01:37:20;2.30;99.90
9193;DHT22;4631;49.296;10.560;2022-11-13T01:39:47;2.40;99.90
9193;DHT22;4631;49.296;10.560;2022-11-13T01:42:13;2.30;99.90
9193;DHT22;4631;49.296;10.560;2022-11-13T01:44:53;2.30;99.90
9193;DHT22;4631;49.296;10.560;2022-11-13T01:47:20;2.30;99.90
9193;DHT22;4631;49.296;10.560;2022-11-13T01:49:47;2.40;99.90
9193;DHT22;4631;49.296;10.560;2022-11-13T01:52:15;2.30;99.90
9193;DHT22;4631;49.296;10.560;2022-11-13T01:54:43;2.30;99.90
9193;DHT22;4631;49.296;10.560;2022-11-13T01:57:11;2.20;99.90
9193;DHT22;4631;49.296;10.560;2022-11-13T01:59:39;2.10;99.90
9193;DHT22;4631;49.296;10.560;2022-11-13T02:02:07;2.10;99.90
9193;DHT22;4631;49.296;10.560;2022-11-13T02:04:34;2.00;99.90
9193;DHT22;4631;49.296;10.560;2022-11-13T02:07:02;2.00;99.90
9193;DHT22;4631;49.296;10.560;2022-11-13T02:09:30;2.00;99.90
9193;DHT22;4631;49.296;10.560;2022-11-13T02:11:58;1.90;99.90
9193;DHT22;4631;49.296;10.560;2022-11-13T02:14:26;1.90;99.90
9193;DHT22;4631;49.296;10.560;2022-11-13T02:16:54;1.90;99.90
9193;DHT22;4631;49.296;10.560;2022-11-13T02:19:24;1.90;99.90
9193;DHT22;4631;49.296;10.560;2022-11-13T02:21:52;1.90;99.90
9193;DHT22;4631;49.296;10.560;2022-11-13T02:24:23;1.90;99.90
9193;DHT22;4631;49.296;10.560;2022-11-13T02:26:51;1.90;99.90
9193;DHT22;4631;49.296;10.560;2022-11-13T02:29:19;1.90;99.90
9193;DHT22;4631;49.296;10.560;2022-11-13T02:31:45;1.90;99.90
9193;DHT22;4631;49.296;10.560;2022-11-13T02:34:12;1.90;99.90
9193;DHT22;4631;49.296;10.560;2022-11-13T02:36:39;1.90;99.90
9193;DHT22;4631;49.296;10.560;2022-11-13T02:39:06;1.90;99.90
9193;DHT22;4631;49.296;10.560;2022-11-13T02:41:35;1.80;99.90
9193;DHT22;4631;49.296;10.560;2022-11-13T02:44:03;1.80;99.90
9193;DHT22;4631;49.296;10.560;2022-11-13T02:46:29;1.90;99.90
9193;DHT22;4631;49.296;10.560;2022-11-13T02:48:56;1.80;99.90
9193;DHT22;4631;49.296;10.560;2022-11-13T02:51:23;1.80;99.90
9193;DHT22;4631;49.296;10.560;2022-11-13T02:53:49;1.80;99.90
9193;DHT22;4631;49.296;10.560;2022-11-13T02:56:16;1.80;99.90
9193;DHT22;4631;49.296;10.560;2022-11-13T02:58:44;1.80;99.90
9193;DHT22;4631;49.296;10.560;2022-11-13T03:01:11;1.90;99.90
9193;DHT22;4631;49.296;10.560;2022-11-13T03:03:38;1.80;99.90
9193;DHT22;4631;49.296;10.560;2022-11-13T03:06:04;1.80;99.90
9193;DHT22;4631;49.296;10.560;2022-11-13T03:08:31;1.80;99.90
9193;DHT22;4631;49.296;10.560;2022-11-13T03:10:58;1.80;99.90
9193;DHT22;4631;49.296;10.560;2022-11-13T03:13:24;1.80;99.90
9193;DHT22;4631;49.296;10.560;2022-11-13T03:15:52;1.70;99.90
9193;DHT22;4631;49.296;10.560;2022-11-13T03:18:19;1.70;99.90
9193;DHT22;4631;49.296;10.560;2022-11-13T03:20:46;1.70;99.90
9193;DHT22;4631;49.296;10.560;2022-11-13T03:23:18;1.70;99.90
9193;DHT22;4631;49.296;10.560;2022-11-13T03:25:44;1.60;99.90
9193;DHT22;4631;49.296;10.560;2022-11-13T03:28:11;1.60;99.90
9193;DHT22;4631;49.296;10.560;2022-11-13T03:30:37;1.60;99.90
9193;DHT22;4631;49.296;10.560;2022-11-13T03:33:05;1.60;99.90
9193;DHT22;4631;49.296;10.560;2022-11-13T03:35:37;1.60;99.90
9193;DHT22;4631;49.296;10.560;2022-11-13T03:38:04;1.50;99.90
9193;DHT22;4631;49.296;10.560;2022-11-13T03:40:30;1.50;99.90
9193;DHT22;4631;49.296;10.560;2022-11-13T03:42:57;1.40;99.90
9193;DHT22;4631;49.296;10.560;2022-11-13T03:45:24;1.40;99.90
9193;DHT22;4631;49.296;10.560;2022-11-13T03:47:50;1.40;99.90
9193;DHT22;4631;49.296;10.560;2022-11-13T03:50:18;1.30;99.90
9193;DHT22;4631;49.296;10.560;2022-11-13T03:52:45;1.30;99.90
9193;DHT22;4631;49.296;10.560;2022-11-13T03:55:11;1.30;99.90
9193;DHT22;4631;49.296;10.560;2022-11-13T03:57:38;1.30;99.90
9193;DHT22;4631;49.296;10.560;2022-11-13T04:00:05;1.30;99.90
9193;DHT22;4631;49.296;10.560;2022-11-13T04:02:32;1.30;99.90
9193;DHT22;4631;49.296;10.560;2022-11-13T04:04:59;1.30;99.90
9193;DHT22;4631;49.296;10.560;2022-11-13T04:07:27;1.30;99.90
9193;DHT22;4631;49.296;10.560;2022-11-13T04:09:54;1.30;99.90
9193;DHT22;4631;49.296;10.560;2022-11-13T04:12:20;1.30;99.90
9193;DHT22;4631;49.296;10.560;2022-11-13T04:14:47;1.30;99.90
9193;DHT22;4631;49.296;10.560;2022-11-13T04:17:14;1.30;99.90
9193;DHT22;4631;49.296;10.560;2022-11-13T04:19:40;1.30;99.90
9193;DHT22;4631;49.296;10.560;2022-11-13T04:22:07;1.30;99.90
9193;DHT22;4631;49.296;10.560;2022-11-13T04:24:35;1.30;99.90
9193;DHT22;4631;49.296;10.560;2022-11-13T04:27:01;1.30;99.90
9193;DHT22;4631;49.296;10.560;2022-11-13T04:29:28;1.30;99.90
9193;DHT22;4631;49.296;10.560;2022-11-13T04:31:55;1.30;99.90
9193;DHT22;4631;49.296;10.560;2022-11-13T04:34:21;1.30;99.90
9193;DHT22;4631;49.296;10.560;2022-11-13T04:36:49;1.30;99.90
9193;DHT22;4631;49.296;10.560;2022-11-13T04:39:15;1.30;99.90
9193;DHT22;4631;49.296;10.560;2022-11-13T04:41:43;1.30;99.90
9193;DHT22;4631;49.296;10.560;2022-11-13T04:44:27;1.30;99.90
9193;DHT22;4631;49.296;10.560;2022-11-13T04:46:54;1.30;99.90
9193;DHT22;4631;49.296;10.560;2022-11-13T04:49:20;1.30;99.90
9193;DHT22;4631;49.296;10.560;2022-11-13T04:51:47;1.30;99.90
9193;DHT22;4631;49.296;10.560;2022-11-13T04:54:14;1.20;99.90
9193;DHT22;4631;49.296;10.560;2022-11-13T04:56:40;1.20;99.90
9193;DHT22;4631;49.296;10.560;2022-11-13T04:59:08;1.20;99.90
9193;DHT22;4631;49.296;10.560;2022-11-13T05:01:35;1.20;99.90
9193;DHT22;4631;49.296;10.560;2022-11-13T05:04:02;1.20;99.90
9193;DHT22;4631;49.296;10.560;2022-11-13T05:06:28;1.10;99.90
9193;DHT22;4631;49.296;10.560;2022-11-13T05:08:55;1.10;99.90
9193;DHT22;4631;49.296;10.560;2022-11-13T05:11:21;1.10;99.90
9193;DHT22;4631;49.296;10.560;2022-11-13T05:13:48;1.10;99.90
9193;DHT22;4631;49.296;10.560;2022-11-13T05:16:16;1.10;99.90
9193;DHT22;4631;49.296;10.560;2022-11-13T05:18:43;1.10;99.90
9193;DHT22;4631;49.296;10.560;2022-11-13T05:21:09;1.10;99.90
9193;DHT22;4631;49.296;10.560;2022-11-13T05:23:36;1.00;99.90
9193;DHT22;4631;49.296;10.560;2022-11-13T05:26:03;1.00;99.90
9193;DHT22;4631;49.296;10.560;2022-11-13T05:28:30;1.00;99.90
9193;DHT22;4631;49.296;10.560;2022-11-13T05:31:03;1.00;99.90
9193;DHT22;4631;49.296;10.560;2022-11-13T05:33:31;1.00;99.90
9193;DHT22;4631;49.296;10.560;2022-11-13T05:36:01;1.00;99.90
9193;DHT22;4631;49.296;10.560;2022-11-13T05:38:28;1.00;99.90
9193;DHT22;4631;49.296;10.560;2022-11-13T05:40:59;1.00;99.90
9193;DHT22;4631;49.296;10.560;2022-11-13T05:43:26;0.90;99.90
9193;DHT22;4631;49.296;10.560;2022-11-13T05:45:57;0.90;99.90
9193;DHT22;4631;49.296;10.560;2022-11-13T05:48:24;0.90;99.90
9193;DHT22;4631;49.296;10.560;2022-11-13T05:50:52;0.90;99.90
9193;DHT22;4631;49.296;10.560;2022-11-13T05:53:18;0.90;99.90
9193;DHT22;4631;49.296;10.560;2022-11-13T05:55:45;0.90;99.90
9193;DHT22;4631;49.296;10.560;2022-11-13T05:58:12;0.90;99.90
9193;DHT22;4631;49.296;10.560;2022-11-13T06:00:38;0.90;99.90
9193;DHT22;4631;49.296;10.560;2022-11-13T06:03:05;0.90;99.90
9193;DHT22;4631;49.296;10.560;2022-11-13T06:05:33;0.80;99.90
9193;DHT22;4631;49.296;10.560;2022-11-13T06:08:01;0.80;99.90
9193;DHT22;4631;49.296;10.560;2022-11-13T06:10:28;0.90;99.90
9193;DHT22;4631;49.296;10.560;2022-11-13T06:12:54;0.90;99.90
9193;DHT22;4631;49.296;10.560;2022-11-13T06:15:21;0.80;99.90
9193;DHT22;4631;49.296;10.560;2022-11-13T06:17:47;0.90;99.90
9193;DHT22;4631;49.296;10.560;2022-11-13T06:20:14;0.80;99.90
9193;DHT22;4631;49.296;10.560;2022-11-13T06:22:41;0.80;99.90
9193;DHT22;4631;49.296;10.560;2022-11-13T06:25:09;0.80;99.90
9193;DHT22;4631;49.296;10.560;2022-11-13T06:27:35;0.80;99.90
9193;DHT22;4631;49.296;10.560;2022-11-13T06:30:02;0.80;99.90
9193;DHT22;4631;49.296;10.560;2022-11-13T06:32:29;0.80;99.90
9193;DHT22;4631;49.296;10.560;2022-11-13T06:34:55;0.80;99.90
9193;DHT22;4631;49.296;10.560;2022-11-13T06:37:22;0.80;99.90
9193;DHT22;4631;49.296;10.560;2022-11-13T06:39:49;0.70;99.90
9193;DHT22;4631;49.296;10.560;2022-11-13T06:42:17;0.70;99.90
9193;DHT22;4631;49.296;10.560;2022-11-13T06:44:43;0.70;99.90
9193;DHT22;4631;49.296;10.560;2022-11-13T06:47:10;0.80;99.90
9193;DHT22;4631;49.296;10.560;2022-11-13T06:49:36;0.80;99.90
9193;DHT22;4631;49.296;10.560;2022-11-13T06:52:03;0.80;99.90
9193;DHT22;4631;49.296;10.560;2022-11-13T06:54:30;0.80;99.90
9193;DHT22;4631;49.296;10.560;2022-11-13T06:56:57;0.70;99.90
9193;DHT22;4631;49.296;10.560;2022-11-13T06:59:25;0.70;99.90
9193;DHT22;4631;49.296;10.560;2022-11-13T07:01:52;0.80;99.90
9193;DHT22;4631;49.296;10.560;2022-11-13T07:04:18;0.70;99.90
9193;DHT22;4631;49.296;10.560;2022-11-13T07:06:45;0.80;99.90
9193;DHT22;4631;49.296;10.560;2022-11-13T07:09:11;0.80;99.90
9193;DHT22;4631;49.296;10.560;2022-11-13T07:11:38;0.80;99.90
9193;DHT22;4631;49.296;10.560;2022-11-13T07:14:05;0.80;99.90
9193;DHT22;4631;49.296;10.560;2022-11-13T07:16:33;0.80;99.90
9193;DHT22;4631;49.296;10.560;2022-11-13T07:18:59;0.90;99.90
9193;DHT22;4631;49.296;10.560;2022-11-13T07:21:26;0.90;99.90
9193;DHT22;4631;49.296;10.560;2022-11-13T07:23:53;0.90;99.90
9193;DHT22;4631;49.296;10.560;2022-11-13T07:26:20;0.90;99.90
9193;DHT22;4631;49.296;10.560;2022-11-13T07:28:47;0.90;99.90
9193;DHT22;4631;49.296;10.560;2022-11-13T07:31:14;0.90;99.90
9193;DHT22;4631;49.296;10.560;2022-11-13T07:33:43;0.90;99.90
9193;DHT22;4631;49.296;10.560;2022-11-13T07:36:09;0.90;99.90
9193;DHT22;4631;49.296;10.560;2022-11-13T07:38:36;0.90;99.90
9193;DHT22;4631;49.296;10.560;2022-11-13T07:41:03;1.00;99.90
9193;DHT22;4631;49.296;10.560;2022-11-13T07:43:30;0.90;99.90
9193;DHT22;4631;49.296;10.560;2022-11-13T07:45:56;0.90;99.90
9193;DHT22;4631;49.296;10.560;2022-11-13T07:48:23;1.00;99.90
9193;DHT22;4631;49.296;10.560;2022-11-13T07:50:52;1.00;99.90
9193;DHT22;4631;49.296;10.560;2022-11-13T07:53:19;1.00;99.90
9193;DHT22;4631;49.296;10.560;2022-11-13T07:55:46;1.10;99.90
9193;DHT22;4631;49.296;10.560;2022-11-13T07:58:13;1.10;99.90
9193;DHT22;4631;49.296;10.560;2022-11-13T08:00:40;1.10;99.90
9193;DHT22;4631;49.296;10.560;2022-11-13T08:03:07;1.20;99.90
9193;DHT22;4631;49.296;10.560;2022-11-13T08:05:34;1.20;99.90
9193;DHT22;4631;49.296;10.560;2022-11-13T08:08:02;1.30;99.90
9193;DHT22;4631;49.296;10.560;2022-11-13T08:10:29;1.30;99.90
9193;DHT22;4631;49.296;10.560;2022-11-13T08:12:59;1.40;99.90
9193;DHT22;4631;49.296;10.560;2022-11-13T08:15:26;1.40;99.90
9193;DHT22;4631;49.296;10.560;2022-11-13T08:17:53;1.40;99.90
9193;DHT22;4631;49.296;10.560;2022-11-13T08:20:20;1.50;99.90
9193;DHT22;4631;49.296;10.560;2022-11-13T08:22:46;1.50;99.90
9193;DHT22;4631;49.296;10.560;2022-11-13T08:25:15;1.60;99.90
9193;DHT22;4631;49.296;10.560;2022-11-13T08:27:41;1.70;99.90
9193;DHT22;4631;49.296;10.560;2022-11-13T08:30:08;1.80;99.90
9193;DHT22;4631;49.296;10.560;2022-11-13T08:32:35;1.80;99.90
9193;DHT22;4631;49.296;10.560;2022-11-13T08:35:02;1.90;99.90
9193;DHT22;4631;49.296;10.560;2022-11-13T08:37:28;2.00;99.90
9193;DHT22;4631;49.296;10.560;2022-11-13T08:39:55;2.10;99.90
9193;DHT22;4631;49.296;10.560;2022-11-13T08:42:23;2.10;99.90
9193;DHT22;4631;49.296;10.560;2022-11-13T08:44:49;2.30;99.90
9193;DHT22;4631;49.296;10.560;2022-11-13T08:47:16;2.40;99.90
9193;DHT22;4631;49.296;10.560;2022-11-13T08:49:43;2.40;99.90
9193;DHT22;4631;49.296;10.560;2022-11-13T08:52:09;2.50;99.90
9193;DHT22;4631;49.296;10.560;2022-11-13T08:54:36;2.60;99.90
9193;DHT22;4631;49.296;10.560;2022-11-13T08:57:02;2.70;99.90
9193;DHT22;4631;49.296;10.560;2022-11-13T08:59:30;2.70;99.90
9193;DHT22;4631;49.296;10.560;2022-11-13T09:01:57;2.80;99.90
9193;DHT22;4631;49.296;10.560;2022-11-13T09:04:24;2.90;99.90
9193;DHT22;4631;49.296;10.560;2022-11-13T09:06:50;3.00;99.90
9193;DHT22;4631;49.296;10.560;2022-11-13T09:09:17;3.10;99.90
9193;DHT22;4631;49.296;10.560;2022-11-13T09:11:44;3.20;99.90
9193;DHT22;4631;49.296;10.560;2022-11-13T09:14:10;3.30;99.90
9193;DHT22;4631;49.296;10.560;2022-11-13T09:16:38;3.50;99.90
9193;DHT22;4631;49.296;10.560;2022-11-13T09:19:05;3.60;99.90
9193;DHT22;4631;49.296;10.560;2022-11-13T09:21:32;3.80;99.90
9193;DHT22;4631;49.296;10.560;2022-11-13T09:23:58;3.90;99.90
9193;DHT22;4631;49.296;10.560;2022-11-13T09:26:25;4.10;99.90
9193;DHT22;4631;49.296;10.560;2022-11-13T09:28:54;4.30;99.90
9193;DHT22;4631;49.296;10.560;2022-11-13T09:31:20;4.50;99.90
9193;DHT22;4631;49.296;10.560;2022-11-13T09:33:48;4.60;99.90
9193;DHT22;4631;49.296;10.560;2022-11-13T09:36:15;4.80;99.90
9193;DHT22;4631;49.296;10.560;2022-11-13T09:38:42;4.90;99.90
9193;DHT22;4631;49.296;10.560;2022-11-13T09:41:10;5.10;99.90
9193;DHT22;4631;49.296;10.560;2022-11-13T09:43:38;5.20;99.90
9193;DHT22;4631;49.296;10.560;2022-11-13T09:46:07;5.40;99.90
9193;DHT22;4631;49.296;10.560;2022-11-13T09:48:37;5.60;99.90
9193;DHT22;4631;49.296;10.560;2022-11-13T09:51:07;5.70;99.90
9193;DHT22;4631;49.296;10.560;2022-11-13T09:53:51;5.90;99.90
9193;DHT22;4631;49.296;10.560;2022-11-13T09:56:21;6.00;99.90
9193;DHT22;4631;49.296;10.560;2022-11-13T09:58:51;6.20;99.90
9193;DHT22;4631;49.296;10.560;2022-11-13T10:01:22;6.30;99.90
9193;DHT22;4631;49.296;10.560;2022-11-13T10:03:51;6.40;99.90
9193;DHT22;4631;49.296;10.560;2022-11-13T10:06:21;6.50;99.90
9193;DHT22;4631;49.296;10.560;2022-11-13T10:08:50;6.70;99.90
9193;DHT22;4631;49.296;10.560;2022-11-13T10:11:20;6.80;99.90
9193;DHT22;4631;49.296;10.560;2022-11-13T10:13:50;6.90;99.90
9193;DHT22;4631;49.296;10.560;2022-11-13T10:16:19;7.10;99.90
9193;DHT22;4631;49.296;10.560;2022-11-13T10:18:48;7.20;99.90
9193;DHT22;4631;49.296;10.560;2022-11-13T10:21:24;7.40;99.90
9193;DHT22;4631;49.296;10.560;2022-11-13T10:23:53;7.60;99.90
9193;DHT22;4631;49.296;10.560;2022-11-13T10:26:22;7.70;99.90
9193;DHT22;4631;49.296;10.560;2022-11-13T10:28:52;7.90;99.90
9193;DHT22;4631;49.296;10.560;2022-11-13T10:31:21;8.10;99.90
9193;DHT22;4631;49.296;10.560;2022-11-13T10:33:48;8.30;99.90
9193;DHT22;4631;49.296;10.560;2022-11-13T10:36:18;8.40;99.90
9193;DHT22;4631;49.296;10.560;2022-11-13T10:38:47;8.60;99.90
9193;DHT22;4631;49.296;10.560;2022-11-13T10:41:15;8.70;99.90
9193;DHT22;4631;49.296;10.560;2022-11-13T10:43:52;8.90;99.90
9193;DHT22;4631;49.296;10.560;2022-11-13T10:46:20;9.00;99.90
9193;DHT22;4631;49.296;10.560;2022-11-13T10:48:47;9.10;99.90
9193;DHT22;4631;49.296;10.560;2022-11-13T10:51:21;9.30;99.90
9193;DHT22;4631;49.296;10.560;2022-11-13T10:53:47;9.40;99.90
9193;DHT22;4631;49.296;10.560;2022-11-13T10:56:20;9.60;99.90
9193;DHT22;4631;49.296;10.560;2022-11-13T10:58:59;9.70;99.90
9193;DHT22;4631;49.296;10.560;2022-11-13T11:01:26;9.90;99.90
9193;DHT22;4631;49.296;10.560;2022-11-13T11:03:53;10.10;99.90
9193;DHT22;4631;49.296;10.560;2022-11-13T11:06:29;10.30;99.90
9193;DHT22;4631;49.296;10.560;2022-11-13T11:09:03;10.50;99.90
9193;DHT22;4631;49.296;10.560;2022-11-13T11:11:30;10.60;99.90
9193;DHT22;4631;49.296;10.560;2022-11-13T11:14:18;10.80;99.90
9193;DHT22;4631;49.296;10.560;2022-11-13T11:16:46;10.90;99.90
9193;DHT22;4631;49.296;10.560;2022-11-13T11:19:14;11.00;99.90
9193;DHT22;4631;49.296;10.560;2022-11-13T11:21:41;11.10;99.90
9193;DHT22;4631;49.296;10.560;2022-11-13T11:24:08;11.30;99.90
9193;DHT22;4631;49.296;10.560;2022-11-13T11:26:38;11.40;99.90
9193;DHT22;4631;49.296;10.560;2022-11-13T11:29:11;11.50;99.90
9193;DHT22;4631;49.296;10.560;2022-11-13T11:31:42;11.60;99.90
9193;DHT22;4631;49.296;10.560;2022-11-13T11:34:12;11.80;99.90
9193;DHT22;4631;49.296;10.560;2022-11-13T11:36:40;12.00;99.90
9193;DHT22;4631;49.296;10.560;2022-11-13T11:39:14;12.10;99.90
9193;DHT22;4631;49.296;10.560;2022-11-13T11:41:48;12.20;99.90
9193;DHT22;4631;49.296;10.560;2022-11-13T11:44:18;12.30;99.90
9193;DHT22;4631;49.296;10.560;2022-11-13T11:46:48;12.30;99.90
9193;DHT22;4631;49.296;10.560;2022-11-13T11:49:15;12.30;99.90
9193;DHT22;4631;49.296;10.560;2022-11-13T11:51:43;12.40;99.90
9193;DHT22;4631;49.296;10.560;2022-11-13T11:54:18;12.50;99.90
9193;DHT22;4631;49.296;10.560;2022-11-13T11:56:47;12.60;99.90
9193;DHT22;4631;49.296;10.560;2022-11-13T11:59:41;12.70;99.90
9193;DHT22;4631;49.296;10.560;2022-11-13T12:02:29;12.90;99.90
9193;DHT22;4631;49.296;10.560;2022-11-13T12:05:02;13.00;99.90
9193;DHT22;4631;49.296;10.560;2022-11-13T12:07:32;13.10;99.90
9193;DHT22;4631;49.296;10.560;2022-11-13T12:10:05;13.10;99.90
9193;DHT22;4631;49.296;10.560;2022-11-13T12:12:38;13.20;99.90
9193;DHT22;4631;49.296;10.560;2022-11-13T12:15:09;13.20;99.90
9193;DHT22;4631;49.296;10.560;2022-11-13T12:17:44;13.20;99.90
9193;DHT22;4631;49.296;10.560;2022-11-13T12:20:19;13.20;99.90
9193;DHT22;4631;49.296;10.560;2022-11-13T12:22:52;13.20;99.90
9193;DHT22;4631;49.296;10.560;2022-11-13T12:25:23;13.20;99.90
9193;DHT22;4631;49.296;10.560;2022-11-13T12:27:53;13.30;99.90
9193;DHT22;4631;49.296;10.560;2022-11-13T12:30:22;13.40;99.90
9193;DHT22;4631;49.296;10.560;2022-11-13T12:33:02;13.50;99.90
9193;DHT22;4631;49.296;10.560;2022-11-13T12:35:32;13.60;99.90
9193;DHT22;4631;49.296;10.560;2022-11-13T12:38:00;13.60;99.90
9193;DHT22;4631;49.296;10.560;2022-11-13T12:40:30;13.60;99.90
9193;DHT22;4631;49.296;10.560;2022-11-13T12:43:04;13.60;99.90
9193;DHT22;4631;49.296;10.560;2022-11-13T12:45:39;13.70;99.90
9193;DHT22;4631;49.296;10.560;2022-11-13T12:48:18;13.70;99.90
9193;DHT22;4631;49.296;10.560;2022-11-13T12:50:55;13.80;99.90
9193;DHT22;4631;49.296;10.560;2022-11-13T12:53:23;13.90;99.90
9193;DHT22;4631;49.296;10.560;2022-11-13T12:55:54;14.00;99.90
9193;DHT22;4631;49.296;10.560;2022-11-13T12:58:24;14.10;99.90
9193;DHT22;4631;49.296;10.560;2022-11-13T13:00:52;14.10;99.90
9193;DHT22;4631;49.296;10.560;2022-11-13T13:03:34;14.10;99.90
9193;DHT22;4631;49.296;10.560;2022-11-13T13:06:08;14.20;99.90
9193;DHT22;4631;49.296;10.560;2022-11-13T13:11:29;14.20;99.90
9193;DHT22;4631;49.296;10.560;2022-11-13T13:14:03;14.20;99.90
9193;DHT22;4631;49.296;10.560;2022-11-13T13:16:32;14.30;99.90
9193;DHT22;4631;49.296;10.560;2022-11-13T13:19:07;14.30;99.90
9193;DHT22;4631;49.296;10.560;2022-11-13T13:21:47;14.40;99.90
9193;DHT22;4631;49.296;10.560;2022-11-13T13:27:14;14.60;99.90
9193;DHT22;4631;49.296;10.560;2022-11-13T13:29:45;14.60;99.90
9193;DHT22;4631;49.296;10.560;2022-11-13T13:32:14;14.60;99.90
9193;DHT22;4631;49.296;10.560;2022-11-13T13:34:45;14.60;99.90
9193;DHT22;4631;49.296;10.560;2022-11-13T13:37:19;14.50;99.90
9193;DHT22;4631;49.296;10.560;2022-11-13T13:39:50;14.50;99.90
9193;DHT22;4631;49.296;10.560;2022-11-13T13:42:25;14.40;99.90
9193;DHT22;4631;49.296;10.560;2022-11-13T13:44:59;14.40;99.90
9193;DHT22;4631;49.296;10.560;2022-11-13T13:47:30;14.20;99.90
9193;DHT22;4631;49.296;10.560;2022-11-13T13:49:58;14.00;99.90
9193;DHT22;4631;49.296;10.560;2022-11-13T13:52:26;13.80;99.90
9193;DHT22;4631;49.296;10.560;2022-11-13T13:54:53;13.60;99.90
9193;DHT22;4631;49.296;10.560;2022-11-13T13:57:20;13.40;99.90
9193;DHT22;4631;49.296;10.560;2022-11-13T13:59:47;13.30;99.90
9193;DHT22;4631;49.296;10.560;2022-11-13T14:02:15;13.20;99.90
9193;DHT22;4631;49.296;10.560;2022-11-13T14:04:43;13.20;99.90
9193;DHT22;4631;49.296;10.560;2022-11-13T14:07:20;13.10;99.90
9193;DHT22;4631;49.296;10.560;2022-11-13T14:09:47;13.10;99.90
9193;DHT22;4631;49.296;10.560;2022-11-13T14:12:18;13.30;99.90
9193;DHT22;4631;49.296;10.560;2022-11-13T14:14:45;13.30;99.90
9193;DHT22;4631;49.296;10.560;2022-11-13T14:17:20;13.40;99.90
9193;DHT22;4631;49.296;10.560;2022-11-13T14:19:49;13.40;99.90
9193;DHT22;4631;49.296;10.560;2022-11-13T14:22:16;13.40;99.90
9193;DHT22;4631;49.296;10.560;2022-11-13T14:24:46;13.50;99.90
9193;DHT22;4631;49.296;10.560;2022-11-13T14:27:16;13.60;99.90
9193;DHT22;4631;49.296;10.560;2022-11-13T14:29:44;13.60;99.90
9193;DHT22;4631;49.296;10.560;2022-11-13T14:32:12;13.50;99.90
9193;DHT22;4631;49.296;10.560;2022-11-13T14:34:42;13.50;99.90
9193;DHT22;4631;49.296;10.560;2022-11-13T14:37:13;13.50;99.90
9193;DHT22;4631;49.296;10.560;2022-11-13T14:39:42;13.50;99.90
9193;DHT22;4631;49.296;10.560;2022-11-13T14:42:13;13.50;99.90
9193;DHT22;4631;49.296;10.560;2022-11-13T14:44:41;13.40;99.90
9193;DHT22;4631;49.296;10.560;2022-11-13T14:47:18;13.40;99.90
9193;DHT22;4631;49.296;10.560;2022-11-13T14:49:45;13.30;99.90
9193;DHT22;4631;49.296;10.560;2022-11-13T14:52:18;13.20;99.90
9193;DHT22;4631;49.296;10.560;2022-11-13T14:54:45;13.10;99.90
9193;DHT22;4631;49.296;10.560;2022-11-13T14:57:14;13.00;99.90
9193;DHT22;4631;49.296;10.560;2022-11-13T14:59:40;12.80;99.90
9193;DHT22;4631;49.296;10.560;2022-11-13T15:02:09;12.70;99.90
9193;DHT22;4631;49.296;10.560;2022-11-13T15:04:36;12.50;99.90
9193;DHT22;4631;49.296;10.560;2022-11-13T15:07:16;12.40;99.90
9193;DHT22;4631;49.296;10.560;2022-11-13T15:09:44;12.30;99.90
9193;DHT22;4631;49.296;10.560;2022-11-13T15:12:10;12.10;99.90
9193;DHT22;4631;49.296;10.560;2022-11-13T15:14:38;12.10;99.90
9193;DHT22;4631;49.296;10.560;2022-11-13T15:17:06;12.00;99.90
9193;DHT22;4631;49.296;10.560;2022-11-13T15:19:36;11.90;99.90
9193;DHT22;4631;49.296;10.560;2022-11-13T15:22:02;11.80;99.90
9193;DHT22;4631;49.296;10.560;2022-11-13T15:24:29;11.80;99.90
9193;DHT22;4631;49.296;10.560;2022-11-13T15:26:56;11.70;99.90
9193;DHT22;4631;49.296;10.560;2022-11-13T15:29:22;11.60;99.90
9193;DHT22;4631;49.296;10.560;2022-11-13T15:31:50;11.50;99.90
9193;DHT22;4631;49.296;10.560;2022-11-13T15:34:17;11.40;99.90
9193;DHT22;4631;49.296;10.560;2022-11-13T15:36:43;11.30;99.90
9193;DHT22;4631;49.296;10.560;2022-11-13T15:39:11;11.20;99.90
9193;DHT22;4631;49.296;10.560;2022-11-13T15:41:38;11.10;99.90
9193;DHT22;4631;49.296;10.560;2022-11-13T15:44:06;11.10;99.90
9193;DHT22;4631;49.296;10.560;2022-11-13T15:46:36;11.00;99.90
9193;DHT22;4631;49.296;10.560;2022-11-13T15:49:03;10.90;99.90
9193;DHT22;4631;49.296;10.560;2022-11-13T15:51:31;10.80;99.90
9193;DHT22;4631;49.296;10.560;2022-11-13T15:53:59;10.70;99.90
9193;DHT22;4631;49.296;10.560;2022-11-13T15:56:27;10.70;99.90
9193;DHT22;4631;49.296;10.560;2022-11-13T15:58:54;10.60;99.90
9193;DHT22;4631;49.296;10.560;2022-11-13T16:01:21;10.60;99.90
9193;DHT22;4631;49.296;10.560;2022-11-13T16:03:48;10.50;99.90
9193;DHT22;4631;49.296;10.560;2022-11-13T16:06:18;10.40;99.90
9193;DHT22;4631;49.296;10.560;2022-11-13T16:08:45;10.40;99.90
9193;DHT22;4631;49.296;10.560;2022-11-13T16:11:12;10.30;99.90